This is the latest recevied weather packets stored in our database for station/object DH0GMA. If no packets are shown the sender has not sent any weather packets the latest 1 day(s).
| Time | Temp. | Humidity | Pressure | Rain* | Wind** | Luminosity | Snow |
|---|---|---|---|---|---|---|---|
| 1778073387 | 16.67° C | 70% | 1005 hPa | 0 mm | - | - | - |
| 1778072787 | 17.22° C | 67% | 1005 hPa | 0 mm | - | - | - |
| 1778072187 | 17.78° C | 66% | 1004.9 hPa | 0 mm | - | - | - |
| 1778071587 | 17.78° C | 67% | 1004.8 hPa | 0 mm | - | - | - |
| 1778067988 | 17.22° C | 69% | 1005 hPa | 0 mm | - | - | - |
| 1778067388 | 17.22° C | 69% | 1004.9 hPa | 0 mm | - | - | - |
| 1778063787 | 16.11° C | 75% | 1005.3 hPa | 0 mm | - | - | - |
| 1778063187 | 15.56° C | 75% | 1005.3 hPa | 0 mm | - | - | - |
| 1778062589 | 15.56° C | 73% | 1005.7 hPa | 0 mm | - | - | - |
| 1778061989 | 15.56° C | 72% | 1005.8 hPa | 0 mm | - | - | - |
| 1778059588 | 16.11° C | 71% | 1006.1 hPa | 0 mm | - | - | - |
| 1778058988 | 16.11° C | 72% | 1006 hPa | 0 mm | - | - | - |
| 1778058388 | 15.56° C | 73% | 1005.9 hPa | 0 mm | - | - | - |
| 1778057788 | 15° C | 77% | 1005.9 hPa | 0 mm | - | - | - |
| 1778057188 | 14.44° C | 77% | 1005.8 hPa | 0 mm | - | - | - |
| 1778053588 | 13.33° C | 81% | 1006 hPa | 0 mm | - | - | - |
| 1778052988 | 13.33° C | 82% | 1006.1 hPa | 0 mm | - | - | - |
| 1778052388 | 13.33° C | 83% | 1006.3 hPa | 0 mm | - | - | - |
| 1778048787 | 11.67° C | 88% | 1006 hPa | 0 mm | - | - | - |
| 1778048187 | 11.67° C | 89% | 1006.1 hPa | 0 mm | - | - | - |
| 1778047587 | 11.67° C | 90% | 1006.2 hPa | 0 mm | - | - | - |
| 1778046987 | 11.11° C | 91% | 1006.3 hPa | 0 mm | - | - | - |
| 1778045188 | 10° C | 92% | 1006.1 hPa | 0 mm | - | - | - |
| 1778043388 | 9.44° C | 92% | 1006.5 hPa | 0 mm | - | - | - |
| 1778042788 | 8.89° C | 92% | 1006.5 hPa | 0 mm | - | - | - |
* Rain latest hour (hover to see other rain measurements)
** Current wind speed in m/s (hover to see current wind gust speed)